createdAt,value
2018-02-17T00:00:04.836Z,96.16
2018-02-17T00:02:33.304Z,96.06
2018-02-17T00:05:01.636Z,95.99
2018-02-17T00:07:29.967Z,95.93
2018-02-17T00:09:59.024Z,95.89
2018-02-17T00:12:27.353Z,95.97
2018-02-17T00:14:55.744Z,95.81
2018-02-17T00:17:24.068Z,95.50
2018-02-17T00:19:53.333Z,95.16
2018-02-17T00:22:21.681Z,95.30
2018-02-17T00:24:50.012Z,95.16
2018-02-17T00:27:19.352Z,94.94
2018-02-17T00:29:47.676Z,94.92
2018-02-17T00:32:16.763Z,94.66
2018-02-17T00:34:45.120Z,94.98
2018-02-17T00:37:13.817Z,95.13
2018-02-17T00:39:42.189Z,95.29
2018-02-17T00:42:10.523Z,95.14
2018-02-17T00:44:38.897Z,94.96
2018-02-17T00:47:07.259Z,95.02
2018-02-17T00:49:36.356Z,95.14
2018-02-17T00:52:05.553Z,95.47
2018-02-17T00:54:33.880Z,95.57
2018-02-17T00:57:02.736Z,95.35
2018-02-17T00:59:31.128Z,95.33
2018-02-17T01:01:59.472Z,95.28
2018-02-17T01:04:27.800Z,95.46
2018-02-17T01:06:56.154Z,95.50
2018-02-17T01:09:25.580Z,95.75
2018-02-17T01:11:53.930Z,95.76
2018-02-17T01:14:22.319Z,95.92
2018-02-17T01:16:50.656Z,96.09
2018-02-17T01:19:18.985Z,95.97
2018-02-17T01:21:47.346Z,95.66
2018-02-17T01:24:15.720Z,95.86
2018-02-17T01:26:44.051Z,95.96
2018-02-17T01:29:14.097Z,95.97
2018-02-17T01:31:42.426Z,95.88
2018-02-17T01:34:10.765Z,96.25
2018-02-17T01:36:39.116Z,96.64
2018-02-17T01:39:07.966Z,96.49
2018-02-17T01:41:36.368Z,96.02
2018-02-17T01:44:04.711Z,95.75
2018-02-17T01:46:33.316Z,95.47
2018-02-17T01:49:01.733Z,96.42
2018-02-17T01:51:30.073Z,96.57
2018-02-17T01:53:58.487Z,97.13
2018-02-17T01:56:27.641Z,98.36
2018-02-17T01:58:56.853Z,98.72
2018-02-17T02:01:25.241Z,98.77
2018-02-17T02:03:53.604Z,98.63
2018-02-17T02:06:21.971Z,98.32
2018-02-17T02:08:51.184Z,98.03
2018-02-17T02:11:19.525Z,98.03
2018-02-17T02:13:49.042Z,98.57
2018-02-17T02:16:17.422Z,98.88
2018-02-17T02:18:45.769Z,98.75
2018-02-17T02:21:14.284Z,98.62
2018-02-17T02:23:43.403Z,98.42
2018-02-17T02:26:12.520Z,98.02
2018-02-17T02:28:40.880Z,97.52
2018-02-17T02:31:09.325Z,97.25
2018-02-17T02:33:37.732Z,97.40
2018-02-17T02:36:06.832Z,97.85
2018-02-17T02:38:35.161Z,98.06
2018-02-17T02:41:03.553Z,98.53
2018-02-17T02:43:32.349Z,98.67
2018-02-17T02:46:00.681Z,98.65
2018-02-17T02:48:29.581Z,98.52
2018-02-17T02:50:57.914Z,98.46
2018-02-17T02:53:26.473Z,98.38
2018-02-17T02:55:54.821Z,98.44
2018-02-17T02:58:23.158Z,98.44
2018-02-17T03:00:52.273Z,98.29
2018-02-17T03:03:20.597Z,98.24
2018-02-17T03:05:48.971Z,98.21
2018-02-17T03:08:17.320Z,98.08
2018-02-17T03:10:45.930Z,97.92
2018-02-17T03:13:21.104Z,97.96
2018-02-17T03:15:49.435Z,97.81
2018-02-17T03:18:17.786Z,97.85
2018-02-17T03:20:47.756Z,97.81
2018-02-17T03:23:16.133Z,97.72
2018-02-17T03:25:44.457Z,97.80
2018-02-17T03:28:13.056Z,97.62
2018-02-17T03:30:41.406Z,97.74
2018-02-17T03:33:10.504Z,97.77
2018-02-17T03:35:39.616Z,97.75
2018-02-17T03:38:07.940Z,97.85
2018-02-17T03:40:36.365Z,97.75
2018-02-17T03:43:05.183Z,97.66
2018-02-17T03:45:33.505Z,97.61
2018-02-17T03:48:01.852Z,97.56
2018-02-17T03:50:30.884Z,97.44
2018-02-17T03:52:59.699Z,97.37
2018-02-17T03:55:28.015Z,97.35
2018-02-17T03:57:56.357Z,97.23
2018-02-17T04:00:24.717Z,97.12
2018-02-17T04:02:53.063Z,97.09
2018-02-17T04:05:21.392Z,96.96
2018-02-17T04:07:49.752Z,96.89
2018-02-17T04:10:18.076Z,96.94
2018-02-17T04:12:46.452Z,97.14
2018-02-17T04:15:14.776Z,97.26
2018-02-17T04:17:43.114Z,97.44
2018-02-17T04:20:11.472Z,97.54
2018-02-17T04:22:39.792Z,97.39
2018-02-17T04:25:08.124Z,97.26
2018-02-17T04:27:36.499Z,97.20
2018-02-17T04:30:04.913Z,97.09
2018-02-17T04:32:33.247Z,96.97
2018-02-17T04:35:01.640Z,97.03
2018-02-17T04:37:30.265Z,97.17
2018-02-17T04:40:04.212Z,97.39
2018-02-17T04:42:34.923Z,97.48
2018-02-17T04:45:04.164Z,97.64
2018-02-17T05:01:19.224Z,97.27
2018-02-17T05:03:47.567Z,97.05
2018-02-17T05:06:26.690Z,96.76
2018-02-17T05:08:56.768Z,96.66
2018-02-17T05:11:25.104Z,96.65
2018-02-17T05:13:53.444Z,96.79
2018-02-17T05:16:26.504Z,97.11
2018-02-17T05:19:05.660Z,97.36
2018-02-17T05:21:33.999Z,97.40
2018-02-17T05:37:28.804Z,96.76
2018-02-17T05:40:01.528Z,96.81
2018-02-17T05:42:31.567Z,96.83
2018-02-17T05:45:01.624Z,96.74
2018-02-17T05:47:32.242Z,96.67
2018-02-17T05:50:00.559Z,96.48
2018-02-17T05:52:29.099Z,96.12
2018-02-17T05:54:58.227Z,95.98
2018-02-17T05:57:26.565Z,95.13
2018-02-17T05:59:55.380Z,94.82
2018-02-17T06:02:23.816Z,94.38
2018-02-17T06:04:52.883Z,94.57
2018-02-17T06:07:21.212Z,94.51
2018-02-17T06:09:50.780Z,94.89
2018-02-17T06:12:19.100Z,94.96
2018-02-17T06:14:47.546Z,94.96
2018-02-17T06:17:15.903Z,94.79
2018-02-17T06:19:44.995Z,94.75
2018-02-17T06:22:13.307Z,94.32
2018-02-17T06:24:41.659Z,94.17
2018-02-17T06:27:10.446Z,94.12
2018-02-17T06:29:39.523Z,94.18
2018-02-17T06:32:07.888Z,94.32
2018-02-17T06:34:36.199Z,93.68
2018-02-17T06:37:04.511Z,93.49
2018-02-17T06:39:32.868Z,93.83
2018-02-17T06:42:01.964Z,94.22
2018-02-17T06:44:30.281Z,94.32
2018-02-17T06:46:58.631Z,94.24
2018-02-17T06:49:26.963Z,94.48
2018-02-17T06:51:55.309Z,94.32
2018-02-17T06:54:24.143Z,94.26
2018-02-17T06:56:53.959Z,94.00
2018-02-17T06:59:22.267Z,94.33
2018-02-17T07:01:50.684Z,94.52
2018-02-17T07:04:19.015Z,94.44
2018-02-17T07:06:47.349Z,94.23
2018-02-17T07:09:15.729Z,94.07
2018-02-17T07:11:43.804Z,93.69
2018-02-17T07:14:12.133Z,93.96
2018-02-17T07:16:41.434Z,94.14
2018-02-17T07:19:09.753Z,93.98
2018-02-17T07:21:38.068Z,94.02
2018-02-17T07:24:06.710Z,93.41
2018-02-17T07:26:35.028Z,92.96
2018-02-17T07:29:04.101Z,92.31
2018-02-17T07:31:32.451Z,92.00
2018-02-17T07:34:01.276Z,90.78
2018-02-17T07:36:30.356Z,90.97
2018-02-17T07:38:58.722Z,91.22
2018-02-17T07:41:27.805Z,90.65
2018-02-17T07:43:56.324Z,91.32
2018-02-17T07:46:24.681Z,91.74
2018-02-17T07:48:53.000Z,92.58
2018-02-17T07:51:21.319Z,93.10
2018-02-17T07:53:50.114Z,93.23
2018-02-17T07:56:18.420Z,92.63
2018-02-17T07:58:46.808Z,92.64
2018-02-17T08:01:15.166Z,92.84
2018-02-17T08:03:43.581Z,92.55
2018-02-17T08:06:11.907Z,92.06
2018-02-17T08:08:40.244Z,92.10
2018-02-17T08:11:09.321Z,91.77
2018-02-17T08:13:38.412Z,91.64
2018-02-17T08:16:07.535Z,91.06
2018-02-17T08:18:35.857Z,91.87
2018-02-17T08:21:04.173Z,91.76
2018-02-17T08:23:32.804Z,91.02
2018-02-17T08:26:01.120Z,90.50
2018-02-17T08:28:29.500Z,89.53
2018-02-17T08:30:57.868Z,88.47
2018-02-17T08:33:26.180Z,88.39
2018-02-17T08:35:55.312Z,87.37
2018-02-17T08:38:23.669Z,88.66
2018-02-17T08:40:52.468Z,87.15
2018-02-17T08:43:20.775Z,88.81
2018-02-17T08:45:49.132Z,89.54
2018-02-17T08:48:17.443Z,88.32
2018-02-17T08:50:45.761Z,88.06
2018-02-17T08:53:14.116Z,87.50
2018-02-17T08:55:43.868Z,87.58
2018-02-17T08:58:12.184Z,86.52
2018-02-17T09:00:40.575Z,86.99
2018-02-17T09:03:08.894Z,87.89
2018-02-17T09:05:37.201Z,86.43
2018-02-17T09:08:05.573Z,86.29
2018-02-17T09:10:47.394Z,86.53
2018-02-17T09:13:15.830Z,86.77
2018-02-17T09:15:44.144Z,85.68
2018-02-17T09:18:12.217Z,86.45
2018-02-17T09:20:43.784Z,84.26
2018-02-17T09:23:12.160Z,84.64
2018-02-17T09:25:40.492Z,84.69
2018-02-17T09:28:08.852Z,85.14
2018-02-17T09:30:37.157Z,83.25
2018-02-17T09:33:05.460Z,80.95
2018-02-17T09:35:34.430Z,82.94
2018-02-17T09:38:02.735Z,83.66
2018-02-17T09:40:31.043Z,79.00
2018-02-17T09:43:00.168Z,77.91
2018-02-17T09:45:28.468Z,77.96
2018-02-17T09:47:56.778Z,77.79
2018-02-17T09:50:25.392Z,78.65
2018-02-17T09:52:53.725Z,78.39
2018-02-17T09:55:22.038Z,77.75
2018-02-17T09:57:50.427Z,78.96
2018-02-17T10:00:19.521Z,78.19
2018-02-17T10:02:47.824Z,78.26
2018-02-17T10:05:16.176Z,77.09
2018-02-17T10:07:44.488Z,78.32
2018-02-17T10:10:14.009Z,77.38
2018-02-17T10:12:42.376Z,77.16
2018-02-17T10:15:10.692Z,76.65
2018-02-17T10:17:39.278Z,76.27
2018-02-17T10:20:07.649Z,76.67
2018-02-17T10:22:36.553Z,75.96
2018-02-17T10:25:04.858Z,76.85
2018-02-17T10:27:33.205Z,76.45
2018-02-17T10:30:01.528Z,75.90
2018-02-17T10:32:29.873Z,75.36
2018-02-17T10:34:58.736Z,75.83
2018-02-17T10:37:27.045Z,76.29
2018-02-17T10:39:55.592Z,77.31
2018-02-17T10:42:25.035Z,77.46
2018-02-17T10:44:53.348Z,78.41
2018-02-17T10:47:21.712Z,77.45
2018-02-17T10:49:50.032Z,77.84
2018-02-17T10:52:18.340Z,79.51
2018-02-17T10:54:46.776Z,80.66
2018-02-17T10:57:15.461Z,82.10
2018-02-17T10:59:43.964Z,83.05
2018-02-17T11:02:12.336Z,85.29
2018-02-17T11:04:40.652Z,85.15
2018-02-17T11:07:08.971Z,85.78
2018-02-17T11:09:37.892Z,86.36
2018-02-17T11:12:06.272Z,87.35
2018-02-17T11:14:34.595Z,89.32
2018-02-17T11:17:02.961Z,90.48
2018-02-17T11:19:31.280Z,91.48
2018-02-17T11:21:59.610Z,91.84
2018-02-17T11:24:27.980Z,92.66
2018-02-17T11:26:56.318Z,93.27
2018-02-17T11:29:24.627Z,93.35
2018-02-17T11:31:54.152Z,93.71
2018-02-17T11:34:22.496Z,93.86
2018-02-17T11:36:50.806Z,94.30
2018-02-17T11:39:19.175Z,94.73
2018-02-17T11:41:48.261Z,94.98
2018-02-17T11:44:17.340Z,95.55
2018-02-17T11:46:45.687Z,95.72
2018-02-17T11:49:13.995Z,95.72
2018-02-17T11:51:42.312Z,95.99
2018-02-17T11:54:11.456Z,96.50
2018-02-17T11:56:39.768Z,96.49
2018-02-17T11:59:08.096Z,96.28
2018-02-17T12:01:36.517Z,96.21
2018-02-17T12:04:05.805Z,96.64
2018-02-17T12:06:34.893Z,96.52
2018-02-17T12:09:03.268Z,96.25
2018-02-17T12:11:31.582Z,96.04
2018-02-17T12:13:59.912Z,96.20
2018-02-17T12:16:28.285Z,96.49
2018-02-17T12:18:56.620Z,96.62
2018-02-17T12:21:24.965Z,96.55
2018-02-17T12:23:53.349Z,96.37
2018-02-17T12:26:21.665Z,96.06
2018-02-17T12:28:49.987Z,96.03
2018-02-17T12:31:18.344Z,96.03
2018-02-17T12:33:46.660Z,95.82
2018-02-17T12:36:14.967Z,95.63
2018-02-17T12:38:43.328Z,95.35
2018-02-17T12:41:12.408Z,95.50
2018-02-17T12:43:41.641Z,95.75
2018-02-17T12:46:10.012Z,95.82
2018-02-17T12:48:38.333Z,95.81
2018-02-17T12:51:06.644Z,96.06
2018-02-17T12:53:35.012Z,96.24
2018-02-17T12:56:03.332Z,96.54
2018-02-17T12:58:31.646Z,96.75
2018-02-17T13:01:00.050Z,96.84
2018-02-17T13:03:28.388Z,96.88
2018-02-17T13:05:56.716Z,96.90
2018-02-17T13:08:25.069Z,96.69
2018-02-17T13:10:53.384Z,96.54
2018-02-17T13:13:21.708Z,96.33
2018-02-17T13:15:50.537Z,96.00
2018-02-17T13:18:19.629Z,95.93
2018-02-17T13:20:47.948Z,95.82
2018-02-17T13:23:16.868Z,95.69
2018-02-17T13:25:46.328Z,95.75
2018-02-17T13:28:25.293Z,95.69
2018-02-17T13:30:53.608Z,95.63
2018-02-17T13:33:21.942Z,95.41
2018-02-17T13:35:50.336Z,95.42
2018-02-17T13:38:18.664Z,95.26
2018-02-17T13:40:47.004Z,94.99
2018-02-17T13:43:15.358Z,94.69
2018-02-17T13:45:43.436Z,94.49
2018-02-17T13:48:11.753Z,94.42
2018-02-17T13:50:40.220Z,94.92
2018-02-17T13:53:08.536Z,95.09
2018-02-17T13:55:36.852Z,95.06
2018-02-17T13:58:05.237Z,95.09
2018-02-17T14:00:33.552Z,95.40
2018-02-17T14:03:01.866Z,95.42
2018-02-17T14:05:30.234Z,95.50
2018-02-17T14:07:59.081Z,95.70
2018-02-17T14:10:27.519Z,96.07
2018-02-17T14:12:55.849Z,96.41
2018-02-17T14:15:24.936Z,96.50
2018-02-17T14:17:53.254Z,96.75
2018-02-17T14:20:21.612Z,96.88
2018-02-17T14:22:49.925Z,96.91
2018-02-17T14:25:18.248Z,96.87
2018-02-17T14:27:46.584Z,96.84
2018-02-17T14:30:14.942Z,96.75
2018-02-17T14:32:43.312Z,96.67
2018-02-17T14:35:11.640Z,96.52
2018-02-17T14:37:40.140Z,96.36
2018-02-17T14:40:08.550Z,96.23
2018-02-17T14:42:36.907Z,96.10
2018-02-17T14:45:05.229Z,96.08
2018-02-17T14:47:33.600Z,96.21
2018-02-17T14:50:01.912Z,96.27
2018-02-17T14:52:30.237Z,96.30
2018-02-17T14:54:58.912Z,96.24
2018-02-17T14:57:27.220Z,96.15
2018-02-17T14:59:55.540Z,96.17
2018-02-17T15:02:23.988Z,96.29
2018-02-17T15:04:52.733Z,96.21
2018-02-17T15:07:21.072Z,96.23
2018-02-17T15:09:49.435Z,96.38
2018-02-17T15:12:17.868Z,96.67
2018-02-17T15:14:46.190Z,96.94
2018-02-17T15:17:16.140Z,97.11
2018-02-17T15:19:44.452Z,97.17
2018-02-17T15:22:13.754Z,97.33
2018-02-17T15:24:42.213Z,97.29
2018-02-17T15:30:21.268Z,97.19
2018-02-17T15:32:51.514Z,97.26
2018-02-17T15:35:20.004Z,97.20
2018-02-17T15:37:48.320Z,97.19
2018-02-17T15:40:17.324Z,97.14
2018-02-17T15:42:45.656Z,97.00
2018-02-17T15:45:14.040Z,96.97
2018-02-17T15:47:42.524Z,96.95
2018-02-17T15:50:11.075Z,96.92
2018-02-17T15:52:40.044Z,96.88
2018-02-17T15:55:09.578Z,96.87
2018-02-17T15:57:38.303Z,97.12
2018-02-17T16:00:07.056Z,97.19
2018-02-17T16:02:35.696Z,97.13
2018-02-17T16:05:05.504Z,97.13
2018-02-17T16:07:36.171Z,97.17
2018-02-17T16:10:05.423Z,97.27
2018-02-17T16:12:35.138Z,97.36
2018-02-17T16:15:03.692Z,97.38
2018-02-17T16:17:32.360Z,97.35
2018-02-17T16:20:01.127Z,97.25
2018-02-17T16:22:31.168Z,97.30
2018-02-17T16:25:00.260Z,97.41
2018-02-17T16:30:29.729Z,97.60
2018-02-17T16:32:58.534Z,97.76
2018-02-17T16:35:27.289Z,97.92
2018-02-17T17:16:56.843Z,98.59
2018-02-17T17:19:26.130Z,98.51
2018-02-17T17:21:54.729Z,98.43
2018-02-17T17:24:23.250Z,98.50
2018-02-17T17:26:51.890Z,98.40
2018-02-17T17:29:20.424Z,98.28
2018-02-17T17:31:48.986Z,98.23
2018-02-17T17:34:17.707Z,98.16
2018-02-17T17:36:46.892Z,98.16
2018-02-17T17:39:16.139Z,98.21
2018-02-17T17:41:44.774Z,98.23
2018-02-17T17:44:13.326Z,98.29
2018-02-17T17:46:41.950Z,98.28
2018-02-17T17:49:10.497Z,98.33
2018-02-17T17:51:39.129Z,98.34
2018-02-17T17:54:07.642Z,98.41
2018-02-17T17:56:36.239Z,98.43
2018-02-17T17:59:04.818Z,98.38
2018-02-17T18:01:33.584Z,98.38
2018-02-17T18:04:02.315Z,98.44
2018-02-17T18:06:30.901Z,98.51
2018-02-17T18:08:59.701Z,98.54
2018-02-17T18:11:28.643Z,98.60
2018-02-17T18:13:57.179Z,98.58
2018-02-17T18:16:27.033Z,98.56
2018-02-17T18:18:55.543Z,98.56
2018-02-17T18:21:24.165Z,98.58
2018-02-17T18:23:53.153Z,98.58
2018-02-17T18:26:21.722Z,98.61
2018-02-17T18:28:50.892Z,98.61
2018-02-17T18:31:19.580Z,98.60
2018-02-17T18:33:48.101Z,98.63
2018-02-17T18:36:16.843Z,98.67
2018-02-17T18:38:45.470Z,98.67
2018-02-17T18:41:15.420Z,98.62
2018-02-17T18:43:43.948Z,98.62
2018-02-17T18:46:12.587Z,98.58
2018-02-17T18:48:41.082Z,98.60
2018-02-17T18:51:09.628Z,98.70
2018-02-17T18:53:38.582Z,98.67
2018-02-17T18:56:07.674Z,98.68
2018-02-17T18:58:36.024Z,98.75
2018-02-17T19:01:05.009Z,98.73
2018-02-17T19:03:33.638Z,98.79
2018-02-17T19:06:02.136Z,98.79
2018-02-17T19:08:31.938Z,98.81
2018-02-17T19:11:00.869Z,98.81
2018-02-17T19:13:29.570Z,98.78
2018-02-17T19:15:58.133Z,98.76
2018-02-17T19:18:26.691Z,98.73
2018-02-17T19:20:55.459Z,98.63
2018-02-17T19:23:25.271Z,98.51
2018-02-17T19:25:54.130Z,98.53
2018-02-17T19:28:23.231Z,98.45
2018-02-17T19:30:52.416Z,98.39
2018-02-17T19:33:21.653Z,98.35
2018-02-17T19:35:50.986Z,98.14
2018-02-17T19:38:19.778Z,98.11
2018-02-17T19:40:48.872Z,98.05
2018-02-17T19:43:18.032Z,98.04
2018-02-17T19:45:46.553Z,98.02
2018-02-17T19:48:15.416Z,97.99
2018-02-17T19:50:44.551Z,97.87
2018-02-17T19:53:13.592Z,97.78
2018-02-17T19:55:43.357Z,97.57
2018-02-17T19:58:11.955Z,97.64
2018-02-17T20:00:40.540Z,97.50
2018-02-17T20:03:09.011Z,97.56
2018-02-17T20:05:38.086Z,97.67
2018-02-17T20:08:08.073Z,97.76
2018-02-17T20:10:37.268Z,97.73
2018-02-17T20:13:05.807Z,97.76
2018-02-17T20:15:34.490Z,97.73
2018-02-17T20:18:03.030Z,97.81
2018-02-17T20:20:31.899Z,97.89
2018-02-17T20:23:00.483Z,97.77
2018-02-17T20:25:29.024Z,97.84
2018-02-17T20:27:57.909Z,97.73
2018-02-17T20:30:26.462Z,97.61
2018-02-17T20:32:55.050Z,97.47
2018-02-17T20:35:25.732Z,97.23
2018-02-17T20:37:55.918Z,97.35
2018-02-17T20:40:24.814Z,97.23
2018-02-17T20:42:53.203Z,97.28
2018-02-17T20:45:22.142Z,97.22
2018-02-17T20:47:51.637Z,97.22
2018-02-17T20:50:21.177Z,97.19
2018-02-17T20:52:49.618Z,97.16
2018-02-17T20:55:17.987Z,97.01
2018-02-17T20:57:46.775Z,97.23
2018-02-17T21:00:15.225Z,97.10
2018-02-17T21:02:44.063Z,97.31
2018-02-17T21:05:13.525Z,97.50
2018-02-17T21:07:42.283Z,97.46
2018-02-17T21:10:11.162Z,97.45
2018-02-17T21:12:41.379Z,97.52
2018-02-17T21:15:09.909Z,97.58
2018-02-17T21:17:38.407Z,97.63
2018-02-17T21:20:07.124Z,97.65
2018-02-17T21:22:35.728Z,97.70
2018-02-17T21:25:05.222Z,97.74
2018-02-17T21:27:35.037Z,97.56
2018-02-17T21:30:05.058Z,97.55
2018-02-17T21:32:34.417Z,97.55
2018-02-17T21:35:04.834Z,97.56
2018-02-17T21:37:33.977Z,97.42
2018-02-17T21:40:02.511Z,97.23
2018-02-17T21:42:30.938Z,97.14
2018-02-17T21:44:59.660Z,97.19
2018-02-17T21:47:28.602Z,97.12
2018-02-17T21:49:57.128Z,97.08
2018-02-17T21:52:25.751Z,97.10
2018-02-17T21:54:54.388Z,97.02
2018-02-17T21:57:23.827Z,97.07
2018-02-17T21:59:52.554Z,97.05
2018-02-17T22:02:21.480Z,96.91
2018-02-17T22:04:51.795Z,96.96
2018-02-17T22:07:20.623Z,96.96
2018-02-17T22:09:49.636Z,96.83
2018-02-17T22:12:18.734Z,96.90
2018-02-17T22:14:47.770Z,97.01
2018-02-17T22:17:17.047Z,96.96
2018-02-17T22:19:46.139Z,97.14
2018-02-17T22:22:14.804Z,97.27
2018-02-17T22:24:43.455Z,97.21
2018-02-17T22:27:11.915Z,97.15
2018-02-17T22:29:40.890Z,97.21
2018-02-17T22:32:10.360Z,97.03
2018-02-17T22:34:38.967Z,96.94
2018-02-17T22:37:07.580Z,97.00
2018-02-17T22:39:36.948Z,96.91
2018-02-17T22:42:05.518Z,96.98
2018-02-17T22:44:34.645Z,96.98
2018-02-17T22:47:03.686Z,97.04
2018-02-17T22:49:32.305Z,96.99
2018-02-17T22:52:04.972Z,97.21
2018-02-17T22:54:33.534Z,97.28
2018-02-17T22:57:04.220Z,97.25
2018-02-17T22:59:32.653Z,97.21
2018-02-17T23:02:02.198Z,97.20
2018-02-17T23:04:32.528Z,97.29
2018-02-17T23:07:03.639Z,97.18
2018-02-17T23:09:32.450Z,97.18
2018-02-17T23:12:01.244Z,97.08
2018-02-17T23:14:30.190Z,97.09
2018-02-17T23:16:59.705Z,97.01
2018-02-17T23:19:28.404Z,96.89
2018-02-17T23:21:57.371Z,96.90
2018-02-17T23:24:26.634Z,96.81
2018-02-17T23:26:55.558Z,96.85
2018-02-17T23:29:24.021Z,96.72
2018-02-17T23:31:52.639Z,96.66
2018-02-17T23:34:22.294Z,96.49
2018-02-17T23:36:51.296Z,96.61
2018-02-17T23:39:19.794Z,96.73
2018-02-17T23:41:48.424Z,96.80
2018-02-17T23:44:16.955Z,97.32
2018-02-17T23:46:45.561Z,97.67
2018-02-17T23:49:14.408Z,97.73
2018-02-17T23:51:43.498Z,97.84
2018-02-17T23:54:12.172Z,98.04
2018-02-17T23:56:40.752Z,97.99
2018-02-17T23:59:09.289Z,98.01
